GWRLD SBSV-SBPS
Flight info
| Callsign | GWRLD |
|---|---|
| Flight time | 0h 42m |
| Altitude | 34000 |
| Route | OSENI DCT RAIRA |
| Aircraft | CL60/M-SBDE1E2E3FGHIJ1J4J5J7M3RWXYZ/LB1V1D1 |
Departure
| Time | 2026-05-04 21:28 |
|---|---|
| Airport | Deputado Luiz Eduardo Magalhães International Airport (SBSV) |
Arrival
| Time | 2026-05-04 22:10 |
|---|---|
| Airport | Porto Seguro International Airport (SBPS) |
| Time | Latitude | Longitude | Altitude | Speed | Heading |
|---|---|---|---|---|---|
| 2026-05-04 21:23 | -12.91222 | -38.32538 | 41 ft | 0 kts | 169° |
| 2026-05-04 21:25 | -12.91227 | -38.32539 | 42 ft | 2 kts | 220° |
| 2026-05-04 21:26 | -12.91183 | -38.32592 | 41 ft | 18 kts | 314° |
| 2026-05-04 21:26 | -12.91175 | -38.32691 | 40 ft | 16 kts | 257° |
| 2026-05-04 21:26 | -12.91214 | -38.32883 | 40 ft | 32 kts | 258° |
| 2026-05-04 21:26 | -12.91252 | -38.33072 | 40 ft | 22 kts | 258° |
| 2026-05-04 21:27 | -12.91200 | -38.33150 | 40 ft | 14 kts | 283° |
| 2026-05-04 21:27 | -12.91221 | -38.33267 | 41 ft | 18 kts | 261° |
| 2026-05-04 21:27 | -12.91178 | -38.33414 | 41 ft | 22 kts | 302° |
| 2026-05-04 21:27 | -12.91096 | -38.33423 | 41 ft | 13 kts | 69° |
| 2026-05-04 21:28 | -12.91061 | -38.33260 | 40 ft | 54 kts | 78° |
| 2026-05-04 21:28 | -12.90905 | -38.32496 | 60 ft | 155 kts | 81° |
| 2026-05-04 21:28 | -12.90644 | -38.31309 | 773 ft | 182 kts | 82° |
| 2026-05-04 21:28 | -12.90387 | -38.29976 | 1751 ft | 201 kts | 84° |
| 2026-05-04 21:29 | -12.90270 | -38.28466 | 2652 ft | 227 kts | 103° |
| 2026-05-04 21:29 | -12.91063 | -38.27022 | 3543 ft | 249 kts | 139° |
| 2026-05-04 21:29 | -12.92667 | -38.26262 | 4464 ft | 261 kts | 165° |
| 2026-05-04 21:29 | -12.94471 | -38.25861 | 5375 ft | 263 kts | 166° |
| 2026-05-04 21:30 | -12.96265 | -38.25466 | 6289 ft | 271 kts | 166° |
| 2026-05-04 21:30 | -12.98155 | -38.25039 | 7585 ft | 280 kts | 165° |
| 2026-05-04 21:30 | -13.00073 | -38.24593 | 9016 ft | 284 kts | 165° |
| 2026-05-04 21:30 | -13.01996 | -38.24134 | 10193 ft | 294 kts | 165° |
| 2026-05-04 21:31 | -13.06047 | -38.23110 | 12604 ft | 304 kts | 163° |
| 2026-05-04 21:31 | -13.08097 | -38.22531 | 13822 ft | 307 kts | 162° |
| 2026-05-04 21:31 | -13.10139 | -38.21943 | 15034 ft | 307 kts | 162° |
| 2026-05-04 21:32 | -13.12212 | -38.21347 | 15911 ft | 318 kts | 163° |
| 2026-05-04 21:32 | -13.14546 | -38.21059 | 15970 ft | 356 kts | 184° |
| 2026-05-04 21:32 | -13.17061 | -38.21728 | 16298 ft | 381 kts | 198° |
| 2026-05-04 21:32 | -13.19611 | -38.22631 | 16933 ft | 391 kts | 198° |
| 2026-05-04 21:33 | -13.22247 | -38.23553 | 17735 ft | 396 kts | 198° |
| 2026-05-04 21:33 | -13.24896 | -38.24478 | 18555 ft | 400 kts | 198° |
| 2026-05-04 21:33 | -13.27553 | -38.25405 | 19327 ft | 404 kts | 198° |
| 2026-05-04 21:33 | -13.30234 | -38.26339 | 20066 ft | 408 kts | 198° |
| 2026-05-04 21:34 | -13.32952 | -38.27287 | 20776 ft | 413 kts | 198° |
| 2026-05-04 21:34 | -13.35711 | -38.28247 | 21473 ft | 417 kts | 198° |
| 2026-05-04 21:34 | -13.38470 | -38.29208 | 22135 ft | 422 kts | 198° |
| 2026-05-04 21:34 | -13.41296 | -38.30192 | 22809 ft | 426 kts | 198° |
| 2026-05-04 21:35 | -13.44165 | -38.31190 | 23486 ft | 429 kts | 199° |
| 2026-05-04 21:35 | -13.47002 | -38.32177 | 24173 ft | 432 kts | 199° |
| 2026-05-04 21:35 | -13.49875 | -38.33177 | 24822 ft | 434 kts | 199° |
| 2026-05-04 21:35 | -13.52730 | -38.34169 | 25412 ft | 438 kts | 199° |
| 2026-05-04 21:36 | -13.55673 | -38.35194 | 25957 ft | 442 kts | 199° |
| 2026-05-04 21:36 | -13.58590 | -38.36209 | 26520 ft | 445 kts | 199° |
| 2026-05-04 21:36 | -13.61525 | -38.37231 | 27066 ft | 447 kts | 199° |
| 2026-05-04 21:36 | -13.64503 | -38.38267 | 27583 ft | 451 kts | 199° |
| 2026-05-04 21:37 | -13.67532 | -38.39322 | 28068 ft | 454 kts | 199° |
| 2026-05-04 21:37 | -13.70529 | -38.40365 | 28534 ft | 457 kts | 199° |
| 2026-05-04 21:37 | -13.73596 | -38.41433 | 28976 ft | 461 kts | 199° |
| 2026-05-04 21:37 | -13.76655 | -38.42499 | 29443 ft | 463 kts | 200° |
| 2026-05-04 21:38 | -13.79732 | -38.43571 | 29927 ft | 463 kts | 200° |
| 2026-05-04 21:38 | -13.82781 | -38.44633 | 30382 ft | 464 kts | 200° |
| 2026-05-04 21:38 | -13.85844 | -38.45701 | 30780 ft | 465 kts | 200° |
| 2026-05-04 21:38 | -13.88952 | -38.46784 | 31138 ft | 467 kts | 200° |
| 2026-05-04 21:39 | -13.92072 | -38.47874 | 31494 ft | 467 kts | 200° |
| 2026-05-04 21:39 | -13.95158 | -38.48979 | 31789 ft | 469 kts | 201° |
| 2026-05-04 21:39 | -13.98303 | -38.50113 | 32058 ft | 470 kts | 201° |
| 2026-05-04 21:39 | -14.01455 | -38.51249 | 32320 ft | 471 kts | 201° |
| 2026-05-04 21:40 | -14.04611 | -38.52387 | 32571 ft | 472 kts | 201° |
| 2026-05-04 21:40 | -14.07803 | -38.53538 | 32797 ft | 473 kts | 201° |
| 2026-05-04 21:40 | -14.10939 | -38.54669 | 33022 ft | 474 kts | 201° |
| 2026-05-04 21:40 | -14.14119 | -38.55817 | 33240 ft | 475 kts | 201° |
| 2026-05-04 21:41 | -14.17266 | -38.56953 | 33513 ft | 474 kts | 201° |
| 2026-05-04 21:41 | -14.20406 | -38.58086 | 33831 ft | 472 kts | 201° |
| 2026-05-04 21:41 | -14.23622 | -38.59247 | 34062 ft | 472 kts | 201° |
| 2026-05-04 21:42 | -14.29937 | -38.61528 | 34058 ft | 472 kts | 201° |
| 2026-05-04 21:42 | -14.33154 | -38.62691 | 34060 ft | 471 kts | 201° |
| 2026-05-04 21:43 | -14.42053 | -38.65906 | 34064 ft | 471 kts | 202° |
| 2026-05-04 21:43 | -14.48264 | -38.68153 | 34066 ft | 471 kts | 202° |
| 2026-05-04 21:44 | -14.54511 | -38.70416 | 34065 ft | 471 kts | 202° |
| 2026-05-04 21:44 | -14.60735 | -38.72671 | 34069 ft | 471 kts | 202° |
| 2026-05-04 21:45 | -14.67025 | -38.74952 | 34071 ft | 469 kts | 202° |
| 2026-05-04 21:45 | -14.73175 | -38.77182 | 34081 ft | 464 kts | 202° |
| 2026-05-04 21:46 | -14.79263 | -38.79391 | 34076 ft | 460 kts | 202° |
| 2026-05-04 21:46 | -14.82278 | -38.80487 | 33767 ft | 464 kts | 202° |
| 2026-05-04 21:46 | -14.85352 | -38.81604 | 33197 ft | 465 kts | 202° |
| 2026-05-04 21:46 | -14.88430 | -38.82722 | 32637 ft | 462 kts | 202° |
| 2026-05-04 21:47 | -14.91473 | -38.83828 | 32031 ft | 460 kts | 202° |
| 2026-05-04 21:47 | -14.94484 | -38.84923 | 31431 ft | 457 kts | 201° |
| 2026-05-04 21:47 | -14.97493 | -38.86017 | 30829 ft | 454 kts | 201° |
| 2026-05-04 21:47 | -15.00497 | -38.87110 | 30223 ft | 452 kts | 201° |
| 2026-05-04 21:48 | -15.03441 | -38.88181 | 29624 ft | 450 kts | 201° |
| 2026-05-04 21:48 | -15.06415 | -38.89263 | 29030 ft | 448 kts | 201° |
| 2026-05-04 21:48 | -15.09353 | -38.90333 | 28433 ft | 446 kts | 201° |
| 2026-05-04 21:48 | -15.12256 | -38.91391 | 27840 ft | 443 kts | 201° |
| 2026-05-04 21:49 | -15.15178 | -38.92455 | 27251 ft | 439 kts | 201° |
| 2026-05-04 21:49 | -15.18080 | -38.93513 | 26665 ft | 437 kts | 200° |
| 2026-05-04 21:49 | -15.20928 | -38.94551 | 26084 ft | 434 kts | 200° |
| 2026-05-04 21:49 | -15.23800 | -38.95599 | 25508 ft | 431 kts | 201° |
| 2026-05-04 21:50 | -15.26626 | -38.96630 | 24935 ft | 428 kts | 200° |
| 2026-05-04 21:50 | -15.29454 | -38.97661 | 24366 ft | 424 kts | 200° |
| 2026-05-04 21:50 | -15.32245 | -38.98680 | 23794 ft | 421 kts | 200° |
| 2026-05-04 21:50 | -15.34990 | -38.99682 | 23249 ft | 418 kts | 201° |
| 2026-05-04 21:51 | -15.37726 | -39.00681 | 22690 ft | 414 kts | 200° |
| 2026-05-04 21:51 | -15.40483 | -39.01688 | 22134 ft | 411 kts | 200° |
| 2026-05-04 21:51 | -15.43191 | -39.02678 | 21586 ft | 408 kts | 200° |
| 2026-05-04 21:51 | -15.45881 | -39.03661 | 21041 ft | 404 kts | 200° |
| 2026-05-04 21:52 | -15.48557 | -39.04639 | 20503 ft | 401 kts | 200° |
| 2026-05-04 21:52 | -15.51175 | -39.05596 | 19971 ft | 397 kts | 200° |
| 2026-05-04 21:52 | -15.53808 | -39.06559 | 19436 ft | 393 kts | 200° |
| 2026-05-04 21:52 | -15.56376 | -39.07499 | 18915 ft | 389 kts | 199° |
| 2026-05-04 21:53 | -15.58966 | -39.08447 | 18398 ft | 386 kts | 199° |
| 2026-05-04 21:53 | -15.61533 | -39.09258 | 17891 ft | 381 kts | 190° |
| 2026-05-04 21:53 | -15.64176 | -39.09388 | 17406 ft | 377 kts | 173° |
| 2026-05-04 21:53 | -15.66763 | -39.08792 | 16893 ft | 374 kts | 163° |
| 2026-05-04 21:54 | -15.69270 | -39.08024 | 16384 ft | 370 kts | 163° |
| 2026-05-04 21:54 | -15.71730 | -39.07276 | 15899 ft | 368 kts | 163° |
| 2026-05-04 21:54 | -15.74199 | -39.06527 | 15410 ft | 364 kts | 163° |
| 2026-05-04 21:54 | -15.76642 | -39.05784 | 14921 ft | 362 kts | 163° |
| 2026-05-04 21:55 | -15.79070 | -39.05046 | 14439 ft | 358 kts | 163° |
| 2026-05-04 21:55 | -15.81457 | -39.04320 | 13962 ft | 355 kts | 162° |
| 2026-05-04 21:55 | -15.83804 | -39.03606 | 13500 ft | 351 kts | 162° |
| 2026-05-04 21:55 | -15.86160 | -39.02889 | 13034 ft | 348 kts | 162° |
| 2026-05-04 21:56 | -15.88512 | -39.02173 | 12561 ft | 346 kts | 162° |
| 2026-05-04 21:56 | -15.90846 | -39.01463 | 12096 ft | 343 kts | 162° |
| 2026-05-04 21:56 | -15.93138 | -39.00764 | 11643 ft | 341 kts | 162° |
| 2026-05-04 21:56 | -15.95414 | -39.00071 | 11190 ft | 338 kts | 162° |
| 2026-05-04 21:57 | -15.97701 | -38.99374 | 10737 ft | 335 kts | 162° |
| 2026-05-04 21:57 | -15.99910 | -38.98702 | 10301 ft | 326 kts | 161° |
| 2026-05-04 21:57 | -16.02097 | -38.98036 | 9858 ft | 317 kts | 161° |
| 2026-05-04 21:57 | -16.04192 | -38.97397 | 9441 ft | 309 kts | 161° |
| 2026-05-04 21:58 | -16.06260 | -38.96767 | 9035 ft | 302 kts | 161° |
| 2026-05-04 21:58 | -16.08275 | -38.96152 | 8629 ft | 295 kts | 161° |
| 2026-05-04 21:58 | -16.10242 | -38.95552 | 8205 ft | 291 kts | 161° |
| 2026-05-04 21:58 | -16.12195 | -38.94955 | 7726 ft | 287 kts | 161° |
| 2026-05-04 21:59 | -16.14085 | -38.94378 | 7356 ft | 277 kts | 161° |
| 2026-05-04 21:59 | -16.15920 | -38.93819 | 7011 ft | 265 kts | 161° |
| 2026-05-04 21:59 | -16.17668 | -38.93285 | 6664 ft | 256 kts | 161° |
| 2026-05-04 21:59 | -16.19379 | -38.92762 | 6351 ft | 250 kts | 161° |
| 2026-05-04 22:00 | -16.21067 | -38.92245 | 5991 ft | 247 kts | 161° |
| 2026-05-04 22:00 | -16.22717 | -38.91740 | 5664 ft | 243 kts | 161° |
| 2026-05-04 22:00 | -16.24325 | -38.91248 | 5340 ft | 239 kts | 161° |
| 2026-05-04 22:00 | -16.25912 | -38.90762 | 5031 ft | 235 kts | 161° |
| 2026-05-04 22:01 | -16.27500 | -38.90276 | 4720 ft | 230 kts | 161° |
| 2026-05-04 22:01 | -16.29030 | -38.89847 | 4416 ft | 227 kts | 169° |
| 2026-05-04 22:01 | -16.30636 | -38.89863 | 4118 ft | 225 kts | 182° |
| 2026-05-04 22:01 | -16.32187 | -38.89995 | 3826 ft | 221 kts | 181° |
| 2026-05-04 22:02 | -16.33697 | -38.90118 | 3535 ft | 207 kts | 181° |
| 2026-05-04 22:02 | -16.35094 | -38.90232 | 3269 ft | 195 kts | 181° |
| 2026-05-04 22:02 | -16.36443 | -38.90341 | 3000 ft | 190 kts | 181° |
| 2026-05-04 22:02 | -16.37763 | -38.90505 | 2772 ft | 190 kts | 191° |
| 2026-05-04 22:03 | -16.38931 | -38.91180 | 2544 ft | 196 kts | 219° |
| 2026-05-04 22:03 | -16.39642 | -38.92427 | 2501 ft | 206 kts | 246° |
| 2026-05-04 22:03 | -16.40035 | -38.93899 | 2510 ft | 208 kts | 250° |
| 2026-05-04 22:03 | -16.40410 | -38.95350 | 2498 ft | 208 kts | 249° |
| 2026-05-04 22:04 | -16.40798 | -38.96798 | 2215 ft | 205 kts | 249° |
| 2026-05-04 22:04 | -16.41186 | -38.98236 | 1972 ft | 204 kts | 249° |
| 2026-05-04 22:04 | -16.41557 | -38.99617 | 1721 ft | 192 kts | 249° |
| 2026-05-04 22:04 | -16.41915 | -39.00943 | 1447 ft | 187 kts | 249° |
| 2026-05-04 22:05 | -16.42269 | -39.02245 | 1195 ft | 182 kts | 250° |
| 2026-05-04 22:05 | -16.42584 | -39.03425 | 983 ft | 156 kts | 250° |
| 2026-05-04 22:05 | -16.42852 | -39.04424 | 799 ft | 132 kts | 251° |
| 2026-05-04 22:05 | -16.43101 | -39.05339 | 551 ft | 128 kts | 252° |
| 2026-05-04 22:06 | -16.43354 | -39.06194 | 466 ft | 122 kts | 249° |
| 2026-05-04 22:06 | -16.43784 | -39.06959 | 537 ft | 122 kts | 232° |
| 2026-05-04 22:06 | -16.44296 | -39.07700 | 661 ft | 130 kts | 235° |
| 2026-05-04 22:06 | -16.44755 | -39.08492 | 618 ft | 126 kts | 246° |
| 2026-05-04 22:07 | -16.44899 | -39.09378 | 629 ft | 124 kts | 272° |
| 2026-05-04 22:07 | -16.44433 | -39.10112 | 701 ft | 134 kts | 334° |
| 2026-05-04 22:07 | -16.43491 | -39.10164 | 697 ft | 133 kts | 1° |
| 2026-05-04 22:07 | -16.42561 | -39.10131 | 732 ft | 131 kts | 1° |
| 2026-05-04 22:08 | -16.41710 | -39.10423 | 870 ft | 130 kts | 315° |
| 2026-05-04 22:08 | -16.41358 | -39.11257 | 866 ft | 125 kts | 262° |
| 2026-05-04 22:08 | -16.41801 | -39.11935 | 805 ft | 117 kts | 199° |
| 2026-05-04 22:08 | -16.42608 | -39.11903 | 806 ft | 117 kts | 162° |
| 2026-05-04 22:09 | -16.43335 | -39.11483 | 849 ft | 122 kts | 147° |
| 2026-05-04 22:09 | -16.43952 | -39.10863 | 774 ft | 124 kts | 130° |
| 2026-05-04 22:09 | -16.44322 | -39.10026 | 475 ft | 130 kts | 98° |
| 2026-05-04 22:09 | -16.44125 | -39.09120 | 247 ft | 129 kts | 78° |
| 2026-05-04 22:10 | -16.43897 | -39.08233 | 164 ft | 114 kts | 73° |
| 2026-05-04 22:10 | -16.43728 | -39.07613 | 156 ft | 60 kts | 74° |
| 2026-05-04 22:10 | -16.43646 | -39.07279 | 152 ft | 32 kts | 93° |
| 2026-05-04 22:10 | -16.43631 | -39.07250 | 152 ft | 12 kts | 260° |
| 2026-05-04 22:11 | -16.43676 | -39.07423 | 154 ft | 30 kts | 254° |
| 2026-05-04 22:11 | -16.43733 | -39.07630 | 156 ft | 20 kts | 253° |
| 2026-05-04 22:11 | -16.43821 | -39.07650 | 157 ft | 16 kts | 165° |
| 2026-05-04 22:11 | -16.43858 | -39.07602 | 156 ft | 7 kts | 336° |
| 2026-05-04 22:12 | -16.43799 | -39.07658 | 157 ft | 19 kts | 348° |
| 2026-05-04 22:12 | -16.43758 | -39.07727 | 157 ft | 17 kts | 253° |
| 2026-05-04 22:12 | -16.43845 | -39.08045 | 162 ft | 46 kts | 253° |
| 2026-05-04 22:12 | -16.43917 | -39.08142 | 163 ft | 13 kts | 162° |
| 2026-05-04 22:13 | -16.44046 | -39.08103 | 163 ft | 16 kts | 164° |
| 2026-05-04 22:13 | -16.44073 | -39.08095 | 163 ft | 0 kts | 165° |
| 2026-05-04 22:20 | -16.44073 | -39.08094 | 163 ft | 0 kts | 165° |
| 2026-05-04 22:20 | -16.44073 | -39.08095 | 162 ft | 0 kts | 165° |